This is the latest recevied weather packets stored in our database for station/object K0WXC-1. If no packets are shown the sender has not sent any weather packets the latest 1 day(s).
| Time | Temp. | Humidity | Pressure | Rain* | Wind** | Luminosity | Snow |
|---|---|---|---|---|---|---|---|
| 1778095708 | 13.89° C | 35% | 1004.5 hPa | 0 mm | 0.89 m/s, 44° | - | - |
| 1778095288 | 13.89° C | 34% | 1004.6 hPa | 0 mm | 0.89 m/s, 271° | - | - |
| 1778095108 | 13.89° C | 34% | 1004.7 hPa | 0 mm | 2.24 m/s, 275° | - | - |
| 1778094868 | 13.89° C | 35% | 1004.4 hPa | 0 mm | 2.68 m/s, 307° | - | - |
| 1778094808 | 13.89° C | 35% | 1004.4 hPa | 0 mm | 2.68 m/s, 307° | - | - |
| 1778094688 | 13.89° C | 35% | 1004.4 hPa | 0 mm | 2.68 m/s, 307° | - | - |
| 1778094628 | 13.33° C | 34% | 1004.7 hPa | 0 mm | 2.24 m/s, 320° | - | - |
| 1778094268 | 13.33° C | 36% | 1004.6 hPa | 0 mm | 0.89 m/s, 267° | - | - |
| 1778093848 | 13.33° C | 34% | 1004.7 hPa | 0 mm | 2.24 m/s, 4° | - | - |
| 1778093728 | 13.33° C | 35% | 1004.7 hPa | 0 mm | 2.68 m/s, 354° | - | - |
| 1778093669 | 13.33° C | 35% | 1004.7 hPa | 0 mm | 2.68 m/s, 354° | - | - |
| 1778093368 | 13.33° C | 37% | 1004.6 hPa | 0 mm | 1.79 m/s, 341° | - | - |
| 1778093308 | 13.33° C | 37% | 1004.6 hPa | 0 mm | 1.79 m/s, 341° | - | - |
| 1778093248 | 13.33° C | 37% | 1004.6 hPa | 0 mm | 1.79 m/s, 341° | - | - |
| 1778093128 | 13.89° C | 37% | 1004.7 hPa | 0 mm | 3.13 m/s, 313° | - | - |
| 1778092888 | 13.89° C | 37% | 1004.7 hPa | 0 mm | 3.13 m/s, 313° | - | - |
| 1778092648 | 13.33° C | 39% | 1004.5 hPa | 0 mm | 0.89 m/s, 31° | - | - |
| 1778092588 | 13.33° C | 39% | 1004.5 hPa | 0 mm | 0.89 m/s, 31° | - | - |
| 1778092408 | 13.33° C | 34% | 1004.7 hPa | 0 mm | 2.68 m/s, 275° | - | - |
| 1778092348 | 13.33° C | 34% | 1004.7 hPa | 0 mm | 2.68 m/s, 275° | - | - |
| 1778092228 | 12.78° C | 34% | 1004.6 hPa | 0 mm | 1.34 m/s, 23° | - | - |
| 1778092168 | 12.78° C | 34% | 1004.6 hPa | 0 mm | 1.34 m/s, 23° | - | - |
| 1778092048 | 12.78° C | 34% | 1004.6 hPa | 0 mm | 1.34 m/s, 23° | - | - |
| 1778091808 | 12.78° C | 39% | 1004.6 hPa | 0 mm | 2.24 m/s, 336° | - | - |
| 1778091268 | 13.33° C | 35% | 1004.6 hPa | 0 mm | 1.34 m/s, 338° | - | - |
* Rain latest hour (hover to see other rain measurements)
** Current wind speed in m/s (hover to see current wind gust speed)